createdAt,value
2022-09-26T00:01:04.971Z,9.37
2022-09-26T00:02:06.637Z,9.26
2022-09-26T00:03:08.296Z,9.26
2022-09-26T00:04:14.246Z,9.29
2022-09-26T00:05:15.640Z,9.32
2022-09-26T00:06:17.941Z,9.34
2022-09-26T00:07:19.378Z,9.26
2022-09-26T00:08:20.790Z,9.27
2022-09-26T00:09:23.712Z,9.23
2022-09-26T00:10:25.127Z,9.21
2022-09-26T00:11:30.618Z,9.21
2022-09-26T00:12:32.032Z,9.24
2022-09-26T00:13:37.295Z,9.21
2022-09-26T00:14:38.726Z,9.20
2022-09-26T00:15:40.115Z,9.25
2022-09-26T00:16:42.354Z,9.17
2022-09-26T00:17:43.795Z,9.18
2022-09-26T00:18:48.296Z,9.28
2022-09-26T00:19:49.702Z,9.34
2022-09-26T00:20:51.715Z,9.34
2022-09-26T00:21:53.180Z,9.33
2022-09-26T00:22:54.578Z,9.28
2022-09-26T00:23:57.157Z,9.24
2022-09-26T00:24:58.543Z,9.14
2022-09-26T00:26:00.212Z,9.15
2022-09-26T00:27:01.644Z,9.04
2022-09-26T00:28:03.041Z,9.14
2022-09-26T00:29:08.648Z,9.16
2022-09-26T00:30:11.164Z,9.11
2022-09-26T00:31:15.005Z,9.14
2022-09-26T00:32:16.492Z,9.19
2022-09-26T00:33:17.912Z,9.13
2022-09-26T00:34:19.715Z,9.13
2022-09-26T00:35:21.117Z,9.17
2022-09-26T00:36:29.838Z,9.21
2022-09-26T00:37:38.705Z,9.14
2022-09-26T00:38:40.333Z,9.06
2022-09-26T00:39:41.851Z,9.12
2022-09-26T00:40:43.295Z,9.01
2022-09-26T00:41:44.935Z,9.03
2022-09-26T00:42:46.360Z,9.06
2022-09-26T00:43:49.692Z,8.98
2022-09-26T00:44:53.226Z,9.03
2022-09-26T00:45:55.847Z,9.03
2022-09-26T00:46:57.516Z,9.02
2022-09-26T00:48:01.915Z,8.96
2022-09-26T00:49:14.286Z,8.92
2022-09-26T00:50:21.307Z,8.90
2022-09-26T00:51:22.856Z,9.03
2022-09-26T00:52:28.332Z,8.88
2022-09-26T00:53:35.438Z,8.98
2022-09-26T00:54:39.768Z,9.01
2022-09-26T00:55:44.283Z,8.91
2022-09-26T00:56:48.077Z,8.90
2022-09-26T00:57:55.770Z,8.93
2022-09-26T00:59:02.265Z,8.87
2022-09-26T01:00:09.130Z,8.86
2022-09-26T01:01:11.148Z,8.93
2022-09-26T01:02:12.882Z,8.98
2022-09-26T01:03:16.226Z,9.01
2022-09-26T01:04:18.132Z,9.08
2022-09-26T01:05:22.761Z,9.13
2022-09-26T01:06:24.272Z,9.05
2022-09-26T01:07:28.202Z,9.00
2022-09-26T01:08:36.872Z,8.93
2022-09-26T01:09:39.229Z,8.94
2022-09-26T01:10:40.641Z,8.99
2022-09-26T01:11:43.329Z,9.00
2022-09-26T01:12:44.884Z,9.05
2022-09-26T01:13:47.421Z,9.17
2022-09-26T01:14:52.184Z,9.22
2022-09-26T01:15:54.952Z,9.21
2022-09-26T01:16:56.563Z,9.20
2022-09-26T01:17:58.103Z,9.22
2022-09-26T01:19:00.241Z,9.31
2022-09-26T01:20:17.612Z,9.35
2022-09-26T01:21:42.549Z,9.36
2022-09-26T01:23:43.506Z,9.36
2022-09-26T01:24:58.832Z,9.38
2022-09-26T01:26:29.575Z,9.37
2022-09-26T01:27:49.418Z,9.35
2022-09-26T01:29:16.160Z,9.25
2022-09-26T01:30:21.324Z,9.02
2022-09-26T01:31:30.518Z,9.01
2022-09-26T01:33:14.016Z,9.10
2022-09-26T01:34:23.675Z,9.00
2022-09-26T01:35:38.018Z,9.01
2022-09-26T01:36:57.547Z,9.01
2022-09-26T01:38:11.481Z,9.06
2022-09-26T01:39:31.366Z,9.11
2022-09-26T01:40:44.495Z,9.02
2022-09-26T01:41:57.575Z,9.05
2022-09-26T01:43:06.313Z,8.81
2022-09-26T01:44:19.102Z,8.76
2022-09-26T01:45:25.961Z,8.79
2022-09-26T01:46:35.861Z,8.58
2022-09-26T01:47:42.813Z,8.50
2022-09-26T01:48:50.304Z,8.41
2022-09-26T01:49:56.503Z,8.43
2022-09-26T01:51:03.970Z,8.35
2022-09-26T01:52:10.917Z,8.32
2022-09-26T01:53:16.066Z,8.33
2022-09-26T01:54:22.552Z,8.37
2022-09-26T01:55:28.812Z,8.43
2022-09-26T01:56:34.191Z,8.31
2022-09-26T01:57:40.874Z,8.33
2022-09-26T01:58:45.880Z,8.27
2022-09-26T01:59:52.832Z,8.31
2022-09-26T02:01:00.428Z,8.32
2022-09-26T02:02:07.476Z,8.23
2022-09-26T02:03:13.263Z,8.27
2022-09-26T02:04:20.129Z,8.26
2022-09-26T02:05:27.332Z,8.24
2022-09-26T02:06:33.282Z,8.29
2022-09-26T02:07:39.012Z,8.26
2022-09-26T02:08:41.816Z,8.30
2022-09-26T02:09:46.690Z,8.18
2022-09-26T02:10:51.882Z,8.16
2022-09-26T02:11:58.981Z,8.26
2022-09-26T02:13:11.315Z,8.30
2022-09-26T02:14:17.502Z,8.26
2022-09-26T02:15:21.123Z,8.27
2022-09-26T02:16:27.669Z,8.15
2022-09-26T02:17:35.523Z,8.12
2022-09-26T02:18:43.485Z,8.08
2022-09-26T02:19:52.562Z,7.95
2022-09-26T02:21:00.946Z,7.95
2022-09-26T02:22:02.869Z,7.87
2022-09-26T02:23:05.077Z,7.87
2022-09-26T02:24:06.605Z,7.80
2022-09-26T02:25:09.398Z,7.86
2022-09-26T02:26:10.857Z,7.85
2022-09-26T02:27:12.372Z,7.79
2022-09-26T02:28:14.316Z,7.78
2022-09-26T02:29:16.407Z,7.75
2022-09-26T02:30:18.008Z,7.68
2022-09-26T02:31:24.276Z,7.77
2022-09-26T02:32:30.628Z,7.76
2022-09-26T02:33:32.024Z,7.79
2022-09-26T02:34:33.612Z,7.77
2022-09-26T02:35:35.040Z,7.84
2022-09-26T02:36:36.728Z,7.80
2022-09-26T02:37:38.196Z,7.81
2022-09-26T02:38:39.583Z,7.75
2022-09-26T02:39:43.175Z,7.71
2022-09-26T02:40:50.324Z,7.72
2022-09-26T02:42:02.145Z,7.75
2022-09-26T02:43:22.860Z,7.75
2022-09-26T02:44:40.500Z,7.82
2022-09-26T02:45:47.243Z,7.72
2022-09-26T02:47:05.274Z,7.74
2022-09-26T02:48:27.640Z,7.77
2022-09-26T02:49:46.803Z,7.78
2022-09-26T02:51:02.640Z,7.78
2022-09-26T02:52:18.757Z,7.81
2022-09-26T02:53:44.395Z,7.79
2022-09-26T02:54:56.737Z,7.80
2022-09-26T02:56:05.705Z,7.77
2022-09-26T02:57:20.180Z,7.81
2022-09-26T02:58:31.300Z,7.81
2022-09-26T02:59:41.598Z,7.77
2022-09-26T03:00:57.845Z,7.86
2022-09-26T03:02:09.458Z,7.88
2022-09-26T03:03:15.916Z,7.87
2022-09-26T03:04:30.036Z,7.92
2022-09-26T03:05:33.848Z,7.94
2022-09-26T03:06:38.644Z,7.91
2022-09-26T03:07:45.124Z,7.94
2022-09-26T03:08:48.862Z,7.97
2022-09-26T03:09:52.714Z,8.02
2022-09-26T03:10:58.747Z,8.01
2022-09-26T03:12:02.451Z,8.02
2022-09-26T03:13:07.415Z,8.13
2022-09-26T03:14:10.376Z,8.21
2022-09-26T03:15:13.507Z,8.18
2022-09-26T03:16:15.052Z,8.23
2022-09-26T03:17:17.961Z,8.12
2022-09-26T03:18:23.238Z,8.18
2022-09-26T03:19:32.918Z,8.14
2022-09-26T03:20:34.438Z,8.25
2022-09-26T03:21:37.190Z,8.33
2022-09-26T03:22:39.232Z,8.32
2022-09-26T03:23:41.044Z,8.18
2022-09-26T03:24:42.719Z,8.19
2022-09-26T03:25:44.299Z,8.14
2022-09-26T03:26:46.052Z,8.17
2022-09-26T03:27:47.822Z,8.07
2022-09-26T03:28:49.221Z,8.10
2022-09-26T03:29:50.732Z,8.02
2022-09-26T03:30:52.243Z,8.10
2022-09-26T03:31:53.787Z,8.10
2022-09-26T03:32:55.411Z,7.99
2022-09-26T03:33:56.912Z,8.05
2022-09-26T03:34:59.648Z,8.03
2022-09-26T03:36:05.033Z,7.99
2022-09-26T03:37:06.703Z,7.98
2022-09-26T03:38:11.319Z,8.01
2022-09-26T03:39:15.888Z,8.02
2022-09-26T03:40:17.553Z,8.02
2022-09-26T03:41:19.012Z,7.99
2022-09-26T03:42:20.455Z,7.98
2022-09-26T03:43:21.824Z,7.98
2022-09-26T03:44:23.939Z,8.00
2022-09-26T03:45:25.404Z,8.03
2022-09-26T03:46:26.867Z,8.04
2022-09-26T03:47:28.510Z,8.03
2022-09-26T03:48:30.118Z,8.07
2022-09-26T03:49:31.564Z,8.05
2022-09-26T03:50:34.362Z,8.03
2022-09-26T03:51:35.793Z,8.08
2022-09-26T03:52:37.245Z,8.12
2022-09-26T03:53:40.297Z,8.07
2022-09-26T03:54:41.726Z,8.11
2022-09-26T03:55:43.198Z,8.12
2022-09-26T03:56:44.624Z,8.21
2022-09-26T03:57:46.043Z,8.11
2022-09-26T03:58:47.915Z,8.12
2022-09-26T03:59:49.309Z,8.09
2022-09-26T04:00:50.743Z,8.10
2022-09-26T04:01:52.257Z,8.10
2022-09-26T04:02:53.751Z,8.05
2022-09-26T04:03:56.898Z,8.06
2022-09-26T04:04:58.361Z,8.10
2022-09-26T04:06:01.075Z,8.15
2022-09-26T04:07:02.526Z,8.25
2022-09-26T04:08:03.973Z,8.32
2022-09-26T04:09:05.526Z,8.36
2022-09-26T04:10:08.179Z,8.40
2022-09-26T04:11:12.308Z,8.47
2022-09-26T04:12:13.734Z,8.44
2022-09-26T04:13:39.746Z,8.45
2022-09-26T04:14:36.654Z,8.31
2022-09-26T04:15:39.306Z,8.25
2022-09-26T04:16:40.712Z,8.19
2022-09-26T04:17:42.127Z,8.12
2022-09-26T04:18:43.512Z,8.09
2022-09-26T04:19:44.885Z,8.12
2022-09-26T04:20:46.331Z,8.23
2022-09-26T04:21:49.100Z,8.24
2022-09-26T04:22:50.516Z,8.21
2022-09-26T04:23:53.230Z,8.06
2022-09-26T04:24:54.627Z,8.09
2022-09-26T04:25:56.631Z,8.14
2022-09-26T04:26:58.027Z,8.07
2022-09-26T04:27:59.461Z,8.14
2022-09-26T04:29:00.901Z,8.16
2022-09-26T04:30:02.355Z,8.14
2022-09-26T04:31:05.338Z,8.16
2022-09-26T04:32:06.804Z,8.14
2022-09-26T04:33:08.240Z,8.24
2022-09-26T04:34:10.059Z,8.34
2022-09-26T04:35:11.452Z,8.38
2022-09-26T04:36:14.143Z,8.41
2022-09-26T04:37:16.922Z,8.49
2022-09-26T04:38:18.452Z,8.59
2022-09-26T04:39:19.905Z,8.63
2022-09-26T04:40:21.377Z,8.58
2022-09-26T04:41:22.842Z,8.61
2022-09-26T04:42:24.286Z,8.62
2022-09-26T04:43:25.717Z,8.51
2022-09-26T04:44:27.177Z,8.45
2022-09-26T04:45:28.676Z,8.33
2022-09-26T04:46:31.144Z,8.46
2022-09-26T04:47:32.888Z,8.47
2022-09-26T04:48:34.353Z,8.59
2022-09-26T04:49:35.785Z,8.63
2022-09-26T04:50:37.250Z,8.63
2022-09-26T04:51:38.647Z,8.66
2022-09-26T04:52:41.427Z,8.69
2022-09-26T04:53:43.275Z,8.71
2022-09-26T04:54:44.681Z,8.73
2022-09-26T04:55:47.134Z,8.74
2022-09-26T04:56:48.522Z,8.72
2022-09-26T04:57:49.927Z,8.77
2022-09-26T04:58:52.172Z,8.74
2022-09-26T04:59:53.567Z,8.76
2022-09-26T05:00:55.011Z,8.78
2022-09-26T05:01:56.580Z,8.81
2022-09-26T05:02:58.004Z,8.84
2022-09-26T05:03:59.395Z,8.81
2022-09-26T05:05:00.906Z,8.80
2022-09-26T05:06:02.411Z,8.79
2022-09-26T05:07:03.818Z,8.79
2022-09-26T05:08:06.628Z,8.81
2022-09-26T05:09:08.023Z,8.79
2022-09-26T05:10:09.832Z,8.76
2022-09-26T05:11:11.279Z,8.80
2022-09-26T05:12:12.718Z,8.79
2022-09-26T05:13:14.107Z,8.80
2022-09-26T05:14:15.714Z,8.81
2022-09-26T05:15:17.225Z,8.81
2022-09-26T05:16:18.717Z,8.85
2022-09-26T05:17:20.248Z,8.83
2022-09-26T05:18:22.756Z,8.74
2022-09-26T05:19:24.234Z,8.76
2022-09-26T05:20:30.841Z,8.69
2022-09-26T05:21:32.445Z,8.69
2022-09-26T05:22:34.441Z,8.77
2022-09-26T05:23:42.161Z,8.74
2022-09-26T05:24:45.956Z,8.81
2022-09-26T05:25:47.398Z,8.75
2022-09-26T05:26:51.502Z,8.78
2022-09-26T05:27:52.982Z,8.76
2022-09-26T05:28:56.929Z,8.78
2022-09-26T05:29:58.339Z,8.78
2022-09-26T05:30:59.722Z,8.79
2022-09-26T05:32:01.570Z,8.76
2022-09-26T05:33:03.315Z,8.82
2022-09-26T05:34:05.652Z,8.84
2022-09-26T05:35:08.086Z,8.86
2022-09-26T05:36:09.500Z,8.89
2022-09-26T05:37:10.886Z,8.94
2022-09-26T05:38:12.270Z,8.84
2022-09-26T05:39:15.105Z,8.88
2022-09-26T05:40:16.946Z,8.71
2022-09-26T05:41:19.006Z,8.88
2022-09-26T05:42:20.434Z,8.85
2022-09-26T05:43:22.014Z,8.93
2022-09-26T05:44:23.513Z,8.95
2022-09-26T05:45:24.922Z,8.92
2022-09-26T05:46:26.675Z,9.02
2022-09-26T05:47:28.194Z,8.99
2022-09-26T05:48:31.221Z,9.03
2022-09-26T05:49:32.681Z,8.87
2022-09-26T05:50:34.154Z,8.81
2022-09-26T05:51:35.600Z,8.73
2022-09-26T05:52:37.199Z,8.72
2022-09-26T05:53:39.600Z,8.61
2022-09-26T05:54:42.390Z,8.52
2022-09-26T05:55:43.782Z,8.48
2022-09-26T05:56:45.351Z,8.37
2022-09-26T05:57:54.761Z,8.48
2022-09-26T05:58:56.168Z,8.43
2022-09-26T05:59:57.549Z,8.57
2022-09-26T06:01:03.828Z,8.54
2022-09-26T06:02:05.562Z,8.70
2022-09-26T06:03:07.024Z,8.71
2022-09-26T06:04:09.360Z,8.77
2022-09-26T06:05:11.140Z,8.80
2022-09-26T06:06:15.642Z,8.83
2022-09-26T06:07:17.070Z,8.80
2022-09-26T06:08:18.593Z,8.80
2022-09-26T06:09:20.053Z,8.83
2022-09-26T06:10:22.826Z,8.87
2022-09-26T06:11:24.482Z,8.87
2022-09-26T06:12:26.249Z,8.86
2022-09-26T06:13:27.729Z,8.89
2022-09-26T06:14:29.156Z,8.88
2022-09-26T06:15:31.117Z,8.87
2022-09-26T06:16:32.627Z,8.92
2022-09-26T06:17:34.078Z,8.91
2022-09-26T06:18:36.615Z,8.91
2022-09-26T06:19:38.084Z,8.95
2022-09-26T06:20:39.594Z,8.95
2022-09-26T06:21:41.035Z,9.04
2022-09-26T06:22:43.425Z,9.08
2022-09-26T06:23:45.005Z,9.07
2022-09-26T06:24:46.391Z,9.10
2022-09-26T06:25:49.116Z,9.12
2022-09-26T06:26:50.525Z,9.08
2022-09-26T06:27:59.125Z,9.11
2022-09-26T06:29:01.507Z,9.04
2022-09-26T06:30:03.065Z,9.18
2022-09-26T06:31:09.166Z,9.09
2022-09-26T06:32:10.658Z,9.14
2022-09-26T06:33:12.117Z,9.11
2022-09-26T06:34:14.626Z,8.88
2022-09-26T06:35:16.223Z,8.80
2022-09-26T06:36:17.607Z,8.74
2022-09-26T06:37:19.236Z,8.88
2022-09-26T06:38:20.684Z,8.75
2022-09-26T06:39:22.098Z,8.72
2022-09-26T06:40:23.561Z,8.66
2022-09-26T06:41:26.342Z,8.67
2022-09-26T06:42:27.712Z,8.68
2022-09-26T06:43:29.187Z,8.90
2022-09-26T06:44:30.809Z,8.95
2022-09-26T06:45:32.204Z,8.79
2022-09-26T06:46:33.677Z,8.92
2022-09-26T06:47:36.054Z,8.90
2022-09-26T06:48:37.643Z,8.95
2022-09-26T06:49:39.160Z,9.04
2022-09-26T06:50:40.587Z,9.02
2022-09-26T06:51:42.022Z,9.15
2022-09-26T06:52:43.477Z,9.22
2022-09-26T06:53:44.879Z,9.39
2022-09-26T06:54:46.261Z,9.46
2022-09-26T06:55:47.951Z,9.45
2022-09-26T06:56:50.750Z,9.52
2022-09-26T06:57:52.160Z,9.64
2022-09-26T06:58:53.577Z,9.62
2022-09-26T06:59:54.956Z,9.77
2022-09-26T07:00:58.260Z,10.00
2022-09-26T07:01:59.842Z,10.14
2022-09-26T07:03:01.883Z,10.11
2022-09-26T07:04:03.890Z,9.78
2022-09-26T07:05:06.220Z,10.11
2022-09-26T07:06:07.715Z,10.07
2022-09-26T07:07:09.365Z,10.35
2022-09-26T07:08:11.013Z,10.54
2022-09-26T07:09:12.869Z,10.70
2022-09-26T07:10:16.558Z,10.83
2022-09-26T07:12:40.924Z,10.82
2022-09-26T07:13:42.336Z,10.84
2022-09-26T07:14:44.001Z,10.75
2022-09-26T07:15:46.493Z,10.66
2022-09-26T07:16:48.894Z,10.60
2022-09-26T07:17:50.352Z,10.74
2022-09-26T07:18:51.878Z,10.44
2022-09-26T07:19:53.356Z,10.17
2022-09-26T07:20:56.895Z,10.10
2022-09-26T07:21:58.617Z,9.92
2022-09-26T07:23:00.568Z,10.08
2022-09-26T07:24:02.088Z,10.12
2022-09-26T07:25:04.502Z,10.28
2022-09-26T07:26:06.621Z,10.04
2022-09-26T07:27:08.020Z,10.17
2022-09-26T07:28:10.783Z,10.30
2022-09-26T07:29:15.601Z,10.28
2022-09-26T07:30:17.261Z,10.48
2022-09-26T07:31:18.788Z,10.54
2022-09-26T07:32:20.201Z,10.38
2022-09-26T07:33:21.617Z,10.33
2022-09-26T07:34:23.114Z,10.47
2022-09-26T07:35:24.583Z,10.13
2022-09-26T07:36:26.022Z,10.26
2022-09-26T07:37:27.405Z,10.00
2022-09-26T07:38:28.801Z,10.18
2022-09-26T07:39:30.226Z,10.24
2022-09-26T07:40:32.041Z,9.93
2022-09-26T07:41:33.581Z,9.55
2022-09-26T07:42:35.061Z,9.86
2022-09-26T07:46:20.615Z,10.53
2022-09-26T07:47:22.075Z,10.49
2022-09-26T07:48:23.510Z,10.59
2022-09-26T07:49:24.965Z,10.55
2022-09-26T07:50:26.375Z,10.54
2022-09-26T07:51:27.818Z,10.58
2022-09-26T07:52:29.281Z,10.50
2022-09-26T07:53:30.714Z,10.57
2022-09-26T07:54:32.184Z,10.44
2022-09-26T07:55:33.588Z,10.54
2022-09-26T07:56:35.008Z,10.53
2022-09-26T07:57:36.460Z,10.66
2022-09-26T07:58:41.053Z,10.45
2022-09-26T07:59:42.598Z,10.42
2022-09-26T08:00:44.053Z,10.61
2022-09-26T08:01:45.526Z,10.57
2022-09-26T08:02:47.122Z,10.57
2022-09-26T08:03:48.601Z,10.63
2022-09-26T08:04:50.457Z,10.68
2022-09-26T08:05:53.071Z,10.57
2022-09-26T08:06:55.376Z,10.69
2022-09-26T08:07:56.762Z,10.37
2022-09-26T08:08:58.172Z,10.53
2022-09-26T08:09:59.647Z,10.64
2022-09-26T08:11:03.897Z,10.38
2022-09-26T08:12:05.972Z,10.19
2022-09-26T08:13:07.394Z,10.53
2022-09-26T08:14:10.188Z,10.41
2022-09-26T08:15:12.021Z,10.47
2022-09-26T08:16:14.606Z,10.55
2022-09-26T08:17:16.579Z,10.96
2022-09-26T08:18:18.041Z,11.10
2022-09-26T08:19:19.457Z,11.09
2022-09-26T08:20:21.001Z,11.00
2022-09-26T08:21:22.751Z,11.07
2022-09-26T08:22:24.214Z,11.21
2022-09-26T08:23:25.671Z,11.64
2022-09-26T08:24:27.157Z,11.92
2022-09-26T08:25:28.747Z,12.07
2022-09-26T08:26:30.159Z,12.30
2022-09-26T08:27:32.866Z,12.57
2022-09-26T08:28:34.593Z,12.80
2022-09-26T08:29:37.338Z,12.64
2022-09-26T08:30:41.106Z,12.68
2022-09-26T08:31:42.858Z,13.18
2022-09-26T08:32:52.662Z,12.55
2022-09-26T08:33:54.146Z,12.78
2022-09-26T08:34:55.535Z,13.03
2022-09-26T08:36:02.935Z,13.29
2022-09-26T08:37:04.365Z,13.54
2022-09-26T08:38:06.669Z,13.31
2022-09-26T08:39:09.769Z,13.47
2022-09-26T08:40:11.665Z,13.04
2022-09-26T08:41:24.576Z,12.89
2022-09-26T08:42:42.033Z,13.34
2022-09-26T08:43:57.782Z,13.11
2022-09-26T08:45:33.624Z,13.70
2022-09-26T08:46:43.995Z,13.80
2022-09-26T08:47:49.331Z,13.89
2022-09-26T08:49:14.544Z,14.18
2022-09-26T08:50:23.052Z,14.17
2022-09-26T08:51:29.610Z,13.86
2022-09-26T08:52:36.695Z,13.25
2022-09-26T08:53:45.590Z,13.62
2022-09-26T08:54:49.348Z,13.08
2022-09-26T08:55:52.184Z,13.43
2022-09-26T08:56:58.489Z,13.58
2022-09-26T08:58:03.351Z,12.54
2022-09-26T08:59:09.832Z,13.16
2022-09-26T09:00:17.587Z,13.28
2022-09-26T09:01:27.660Z,13.16
2022-09-26T09:02:34.324Z,13.18
2022-09-26T09:03:42.977Z,13.00
2022-09-26T09:04:53.820Z,13.04
2022-09-26T09:06:02.785Z,13.15
2022-09-26T09:07:11.249Z,13.06
2022-09-26T09:08:15.118Z,13.15
2022-09-26T09:09:17.308Z,12.91
2022-09-26T09:10:24.610Z,12.36
2022-09-26T09:11:53.334Z,13.00
2022-09-26T09:13:05.864Z,13.10
2022-09-26T09:14:23.073Z,13.18
2022-09-26T09:15:37.937Z,13.46
2022-09-26T09:16:55.769Z,13.52
2022-09-26T09:18:13.609Z,13.43
2022-09-26T09:19:23.594Z,13.22
2022-09-26T09:20:35.044Z,13.38
2022-09-26T09:21:47.180Z,13.66
2022-09-26T09:23:13.674Z,13.99
2022-09-26T09:24:21.032Z,14.09
2022-09-26T09:25:28.166Z,14.13
2022-09-26T09:28:14.045Z,14.28
2022-09-26T09:29:40.176Z,14.07
2022-09-26T09:30:45.246Z,14.13
2022-09-26T09:31:49.080Z,14.01
2022-09-26T09:32:55.692Z,13.67
2022-09-26T09:34:01.936Z,14.21
2022-09-26T09:35:03.726Z,14.13
2022-09-26T09:36:08.977Z,13.84
2022-09-26T09:37:15.058Z,14.06
2022-09-26T09:38:18.940Z,14.24
2022-09-26T09:39:27.608Z,14.05
2022-09-26T09:40:33.858Z,13.84
2022-09-26T09:41:42.501Z,14.48
2022-09-26T09:42:50.565Z,14.39
2022-09-26T09:43:55.361Z,14.54
2022-09-26T09:45:01.475Z,14.51
2022-09-26T09:46:05.125Z,14.53
2022-09-26T09:47:14.735Z,14.69
2022-09-26T09:48:16.163Z,14.79
2022-09-26T09:49:20.479Z,14.53
2022-09-26T09:50:34.788Z,14.87
2022-09-26T09:51:48.333Z,14.15
2022-09-26T09:52:59.850Z,14.32
2022-09-26T09:54:19.517Z,14.10
2022-09-26T09:55:38.275Z,13.46
2022-09-26T09:56:45.709Z,13.86
2022-09-26T09:58:09.176Z,13.84
2022-09-26T09:59:27.684Z,14.24
2022-09-26T10:00:29.435Z,14.10
2022-09-26T10:01:34.866Z,14.06
2022-09-26T10:02:45.812Z,14.16
2022-09-26T10:03:53.154Z,14.09
2022-09-26T10:05:03.546Z,13.77
2022-09-26T10:06:07.113Z,13.74
2022-09-26T10:07:27.439Z,13.54
2022-09-26T10:08:31.798Z,13.04
2022-09-26T10:09:40.354Z,12.89
2022-09-26T10:10:49.570Z,12.60
2022-09-26T10:11:52.725Z,12.41
2022-09-26T10:12:55.747Z,12.49
2022-09-26T10:14:00.428Z,12.56
2022-09-26T10:15:03.921Z,12.59
2022-09-26T10:16:06.976Z,12.37
2022-09-26T10:17:19.484Z,12.45
2022-09-26T10:18:25.126Z,12.48
2022-09-26T10:19:34.802Z,12.55
2022-09-26T10:20:39.891Z,12.55
2022-09-26T10:21:46.402Z,12.26
2022-09-26T10:22:47.882Z,12.30
2022-09-26T10:23:50.481Z,12.39
2022-09-26T10:24:59.054Z,12.62
2022-09-26T10:26:02.911Z,12.34
2022-09-26T10:27:14.426Z,12.34
2022-09-26T10:28:29.646Z,12.38
2022-09-26T10:29:31.815Z,12.61
2022-09-26T10:30:47.227Z,12.95
2022-09-26T10:31:55.441Z,13.14
2022-09-26T10:32:59.003Z,13.02
2022-09-26T10:34:03.841Z,12.85
2022-09-26T10:35:19.386Z,12.96
2022-09-26T10:36:29.520Z,13.04
2022-09-26T10:37:31.243Z,12.99
2022-09-26T10:38:32.810Z,12.79
2022-09-26T10:39:39.245Z,12.67
2022-09-26T10:40:50.331Z,12.48
2022-09-26T10:41:58.359Z,12.87
2022-09-26T10:43:34.838Z,12.87
2022-09-26T10:44:36.249Z,12.97
2022-09-26T10:45:37.663Z,13.10
2022-09-26T10:46:41.917Z,12.61
2022-09-26T10:47:45.240Z,12.78
2022-09-26T10:48:49.558Z,12.94
2022-09-26T10:49:58.105Z,12.59
2022-09-26T10:50:59.579Z,12.41
2022-09-26T10:52:08.342Z,12.75
2022-09-26T10:53:13.696Z,12.86
2022-09-26T10:54:18.992Z,12.65
2022-09-26T10:55:24.943Z,12.83
2022-09-26T10:56:30.658Z,12.68
2022-09-26T10:57:36.062Z,12.72
2022-09-26T10:58:41.602Z,12.52
2022-09-26T10:59:43.085Z,12.34
2022-09-26T11:00:47.390Z,12.41
2022-09-26T11:01:51.605Z,12.57
2022-09-26T11:02:53.455Z,12.84
2022-09-26T11:03:57.955Z,13.01
2022-09-26T11:05:05.075Z,13.03
2022-09-26T11:06:23.849Z,13.00
2022-09-26T11:07:28.485Z,13.03
2022-09-26T11:08:32.060Z,12.92
2022-09-26T11:09:34.218Z,13.05
2022-09-26T11:10:36.801Z,13.15
2022-09-26T11:11:39.811Z,13.04
2022-09-26T11:13:03.019Z,12.96
2022-09-26T11:14:06.331Z,12.87
2022-09-26T11:15:09.914Z,12.71
2022-09-26T11:16:13.445Z,12.92
2022-09-26T11:17:15.007Z,12.68
2022-09-26T11:18:23.824Z,12.77
2022-09-26T11:19:36.327Z,12.90
2022-09-26T11:20:47.338Z,13.29
2022-09-26T11:21:57.380Z,13.30
2022-09-26T11:23:06.621Z,13.33
2022-09-26T11:24:16.722Z,13.47
2022-09-26T11:25:24.427Z,13.36
2022-09-26T11:26:34.921Z,13.65
2022-09-26T11:27:41.433Z,13.55
2022-09-26T11:28:49.916Z,13.66
2022-09-26T11:29:57.611Z,13.47
2022-09-26T11:31:06.189Z,13.42
2022-09-26T11:32:13.330Z,13.58
2022-09-26T11:33:15.259Z,13.39
2022-09-26T11:34:24.724Z,13.40
2022-09-26T11:35:35.650Z,13.55
2022-09-26T11:36:57.769Z,13.77
2022-09-26T11:38:09.405Z,13.92
2022-09-26T11:39:23.625Z,13.97
2022-09-26T11:40:38.907Z,14.14
2022-09-26T11:41:51.883Z,14.00
2022-09-26T11:43:09.253Z,14.07
2022-09-26T11:44:34.373Z,13.87
2022-09-26T11:45:50.651Z,13.76
2022-09-26T11:47:10.314Z,13.61
2022-09-26T11:48:27.616Z,13.97
2022-09-26T11:49:44.562Z,13.97
2022-09-26T11:50:55.574Z,14.04
2022-09-26T11:52:12.966Z,14.13
2022-09-26T11:53:38.828Z,14.16
2022-09-26T11:54:54.735Z,14.42
2022-09-26T11:56:13.263Z,14.37
2022-09-26T11:57:34.345Z,14.24
2022-09-26T11:58:48.145Z,13.87
2022-09-26T12:00:03.948Z,13.63
2022-09-26T12:01:14.152Z,13.64
2022-09-26T12:02:53.091Z,13.64
2022-09-26T12:04:10.909Z,13.69
2022-09-26T12:05:26.763Z,13.83
2022-09-26T12:06:32.240Z,14.08
2022-09-26T12:07:42.003Z,14.11
2022-09-26T12:09:04.405Z,14.30
2022-09-26T12:10:17.017Z,14.33
2022-09-26T12:11:25.981Z,14.16
2022-09-26T12:12:40.507Z,14.09
2022-09-26T12:13:50.710Z,14.13
2022-09-26T12:15:10.485Z,13.91
2022-09-26T12:16:17.772Z,13.64
2022-09-26T12:17:26.947Z,13.68
2022-09-26T12:18:35.592Z,13.71
2022-09-26T12:19:45.505Z,13.99
2022-09-26T12:20:59.675Z,14.02
2022-09-26T12:22:09.078Z,14.14
2022-09-26T12:23:22.968Z,14.14
2022-09-26T12:24:33.601Z,13.94
2022-09-26T12:25:51.491Z,13.90
2022-09-26T12:26:59.945Z,14.22
2022-09-26T12:28:15.063Z,14.31
2022-09-26T12:29:31.933Z,14.05
2022-09-26T12:30:40.075Z,13.85
2022-09-26T12:31:53.587Z,13.71
2022-09-26T12:33:06.226Z,13.37
2022-09-26T12:34:23.095Z,13.62
2022-09-26T12:35:35.994Z,13.67
2022-09-26T12:36:49.589Z,13.70
2022-09-26T12:38:08.417Z,13.72
2022-09-26T12:39:29.530Z,13.85
2022-09-26T12:40:37.784Z,13.91
2022-09-26T12:42:06.807Z,13.93
2022-09-26T12:43:55.453Z,13.81
2022-09-26T12:45:16.538Z,13.75
2022-09-26T12:46:33.524Z,13.78
2022-09-26T12:47:52.218Z,13.82
2022-09-26T12:49:10.405Z,13.55
2022-09-26T12:50:17.602Z,13.66
2022-09-26T12:51:24.551Z,13.67
2022-09-26T12:52:39.776Z,13.82
2022-09-26T12:54:08.984Z,13.98
2022-09-26T12:55:25.459Z,14.18
2022-09-26T12:56:44.788Z,14.36
2022-09-26T12:58:00.858Z,14.39
2022-09-26T12:59:20.767Z,14.12
2022-09-26T13:00:22.874Z,13.87
2022-09-26T13:01:38.815Z,13.85
2022-09-26T13:03:15.742Z,13.77
2022-09-26T13:04:36.414Z,13.54
2022-09-26T13:05:53.265Z,13.70
2022-09-26T13:07:21.799Z,13.80
2022-09-26T13:08:34.465Z,13.90
2022-09-26T13:09:52.612Z,13.84
2022-09-26T13:11:06.356Z,13.80
2022-09-26T13:12:19.855Z,13.82
2022-09-26T13:13:56.145Z,13.76
2022-09-26T13:15:07.898Z,13.28
2022-09-26T13:16:20.469Z,13.59
2022-09-26T13:17:28.072Z,13.71
2022-09-26T13:18:35.521Z,13.68
2022-09-26T13:19:40.905Z,13.32
2022-09-26T13:20:45.546Z,13.34
2022-09-26T13:21:54.295Z,13.23
2022-09-26T13:23:01.894Z,13.16
2022-09-26T13:24:10.764Z,13.11
2022-09-26T13:25:16.469Z,13.22
2022-09-26T13:26:25.249Z,12.92
2022-09-26T13:27:31.856Z,12.82
2022-09-26T13:28:37.719Z,12.65
2022-09-26T13:29:43.674Z,12.45
2022-09-26T13:30:49.576Z,12.04
2022-09-26T13:31:56.191Z,11.92
2022-09-26T13:33:02.795Z,12.14
2022-09-26T13:34:14.456Z,12.04
2022-09-26T13:35:20.863Z,11.69
2022-09-26T13:36:23.486Z,11.66
2022-09-26T13:37:38.589Z,11.43
2022-09-26T13:38:49.688Z,11.25
2022-09-26T13:39:59.216Z,11.27
2022-09-26T13:41:10.096Z,11.25
2022-09-26T13:42:19.175Z,11.07
2022-09-26T13:43:33.562Z,11.33
2022-09-26T13:44:49.685Z,11.44
2022-09-26T13:46:00.863Z,11.60
2022-09-26T13:47:13.389Z,11.57
2022-09-26T13:48:22.634Z,11.55
2022-09-26T13:49:34.231Z,11.62
2022-09-26T13:50:43.644Z,11.54
2022-09-26T13:51:52.372Z,11.55
2022-09-26T13:53:03.570Z,11.62
2022-09-26T13:54:15.674Z,11.56
2022-09-26T13:55:18.439Z,11.37
2022-09-26T13:56:47.765Z,11.52
2022-09-26T13:58:02.422Z,11.57
2022-09-26T13:59:05.688Z,11.65
2022-09-26T14:00:44.510Z,11.92
2022-09-26T14:02:16.915Z,12.11
2022-09-26T14:03:40.809Z,11.97
2022-09-26T14:04:43.261Z,11.91
2022-09-26T14:05:49.364Z,11.97
2022-09-26T14:07:04.003Z,12.06
2022-09-26T14:08:28.188Z,12.27
2022-09-26T14:09:52.184Z,12.37
2022-09-26T14:11:04.570Z,12.40
2022-09-26T14:12:33.300Z,12.64
2022-09-26T14:13:37.372Z,12.78
2022-09-26T14:14:44.654Z,12.79
2022-09-26T14:15:57.355Z,12.83
2022-09-26T14:17:02.479Z,12.99
2022-09-26T14:18:15.767Z,13.10
2022-09-26T14:19:20.759Z,13.18
2022-09-26T14:20:26.135Z,13.15
2022-09-26T14:21:35.470Z,13.14
2022-09-26T14:22:50.451Z,12.92
2022-09-26T14:24:26.324Z,12.79
2022-09-26T14:25:55.401Z,12.60
2022-09-26T14:27:26.637Z,12.75
2022-09-26T14:28:32.354Z,12.97
2022-09-26T14:29:49.992Z,12.96
2022-09-26T14:31:20.548Z,13.09
2022-09-26T14:32:25.763Z,13.09
2022-09-26T14:33:27.213Z,13.15
2022-09-26T14:34:33.195Z,13.01
2022-09-26T14:35:37.811Z,12.96
2022-09-26T14:36:39.359Z,13.03
2022-09-26T14:37:42.635Z,13.02
2022-09-26T14:38:46.826Z,12.99
2022-09-26T14:39:51.686Z,13.07